createdAt,value
2017-05-08T00:00:32.863Z,41.35
2017-05-08T00:01:41.828Z,41.35
2017-05-08T00:02:51.109Z,41.26
2017-05-08T00:04:00.151Z,41.45
2017-05-08T00:05:09.101Z,41.26
2017-05-08T00:06:18.360Z,41.74
2017-05-08T00:07:27.318Z,41.93
2017-05-08T00:08:36.277Z,41.93
2017-05-08T00:09:45.271Z,42.02
2017-05-08T00:10:54.234Z,42.11
2017-05-08T00:12:03.496Z,41.83
2017-05-08T00:13:12.452Z,41.74
2017-05-08T00:14:21.411Z,41.83
2017-05-08T00:15:30.369Z,41.74
2017-05-08T00:16:39.325Z,41.64
2017-05-08T00:17:48.534Z,41.93
2017-05-08T00:18:57.489Z,41.93
2017-05-08T00:20:06.448Z,41.93
2017-05-08T00:21:15.403Z,42.11
2017-05-08T00:22:24.360Z,42.21
2017-05-08T00:23:33.616Z,42.6
2017-05-08T00:24:42.608Z,42.4
2017-05-08T00:25:51.564Z,42.4
2017-05-08T00:27:00.524Z,42.77
2017-05-08T00:28:09.482Z,42.79
2017-05-08T00:29:18.687Z,43.05
2017-05-08T00:30:27.650Z,42.77
2017-05-08T00:31:36.612Z,43.15
2017-05-08T00:32:45.578Z,43.33
2017-05-08T00:33:54.540Z,43.33
2017-05-08T00:35:03.799Z,43.15
2017-05-08T00:36:12.760Z,42.77
2017-05-08T00:37:22.335Z,43.33
2017-05-08T00:38:31.303Z,43.53
2017-05-08T00:39:40.262Z,43.05
2017-05-08T00:40:49.519Z,43.53
2017-05-08T00:41:58.478Z,43.72
2017-05-08T00:43:07.441Z,44.1
2017-05-08T00:44:16.448Z,44.77
2017-05-08T00:45:25.404Z,44.67
2017-05-08T00:46:34.613Z,44.67
2017-05-08T00:47:43.571Z,44.38
2017-05-08T00:48:52.528Z,43.82
2017-05-08T00:50:01.489Z,44.2
2017-05-08T00:51:10.454Z,44.38
2017-05-08T00:52:19.692Z,44.29
2017-05-08T00:53:28.651Z,43.72
2017-05-08T00:54:37.619Z,43.91
2017-05-08T00:55:46.578Z,44.01
2017-05-08T00:56:55.537Z,43.84
2017-05-08T00:58:04.802Z,44.38
2017-05-08T00:59:13.774Z,44.01
2017-05-08T01:00:22.732Z,44.48
2017-05-08T01:01:31.690Z,44.89
2017-05-08T01:02:40.654Z,44.79
2017-05-08T01:03:49.914Z,44.79
2017-05-08T01:04:59.195Z,44.31
2017-05-08T01:06:08.151Z,44.31
2017-05-08T01:07:17.109Z,44.31
2017-05-08T01:08:26.176Z,44.41
2017-05-08T01:09:35.383Z,44.41
2017-05-08T01:10:44.353Z,44.79
2017-05-08T01:11:53.311Z,44.7
2017-05-08T01:13:02.276Z,44.89
2017-05-08T01:14:11.245Z,45.56
2017-05-08T01:15:20.837Z,45.17
2017-05-08T01:16:29.798Z,44.89
2017-05-08T01:17:38.843Z,44.89
2017-05-08T01:18:47.801Z,44.79
2017-05-08T01:19:56.759Z,44.89
2017-05-08T01:21:06.020Z,44.51
2017-05-08T01:22:14.977Z,45.08
2017-05-08T01:23:23.942Z,45.37
2017-05-08T01:24:32.897Z,45.56
2017-05-08T01:25:41.886Z,45.46
2017-05-08T01:26:51.140Z,45.65
2017-05-08T01:28:00.101Z,46.22
2017-05-08T01:29:09.062Z,45.75
2017-05-08T01:30:18.023Z,45.27
2017-05-08T01:31:26.985Z,44.7
2017-05-08T01:32:36.250Z,44.31
2017-05-08T01:33:45.206Z,44.02
2017-05-08T01:34:54.165Z,44.41
2017-05-08T01:36:03.133Z,44.89
2017-05-08T01:37:12.177Z,44.79
2017-05-08T01:38:21.762Z,44.31
2017-05-08T01:39:31.092Z,44.02
2017-05-08T01:40:40.057Z,43.55
2017-05-08T01:41:49.033Z,43.74
2017-05-08T01:42:57.997Z,44.12
2017-05-08T01:44:07.210Z,44.31
2017-05-08T01:45:16.171Z,44.98
2017-05-08T01:46:25.128Z,45.08
2017-05-08T01:47:34.082Z,44.12
2017-05-08T01:48:43.041Z,43.84
2017-05-08T01:49:52.303Z,43.36
2017-05-08T01:51:01.282Z,42.79
2017-05-08T01:52:10.244Z,43.36
2017-05-08T01:53:19.199Z,43.17
2017-05-08T01:54:28.168Z,42.79
2017-05-08T01:55:37.427Z,42.31
2017-05-08T01:56:46.381Z,41.93
2017-05-08T01:57:55.344Z,41.35
2017-05-08T01:59:04.301Z,41.45
2017-05-08T02:00:13.261Z,41.55
2017-05-08T02:01:22.522Z,40.69
2017-05-08T02:02:31.481Z,40.88
2017-05-08T02:03:40.434Z,41.35
2017-05-08T02:04:49.390Z,41.93
2017-05-08T02:05:58.363Z,42.11
2017-05-08T02:07:07.621Z,42.88
2017-05-08T02:08:16.584Z,43.26
2017-05-08T02:09:25.590Z,42.5
2017-05-08T02:10:34.551Z,43.07
2017-05-08T02:11:43.508Z,42.79
2017-05-08T02:12:52.765Z,43.93
2017-05-08T02:14:01.723Z,43.65
2017-05-08T02:15:10.677Z,43.46
2017-05-08T02:16:19.634Z,43.07
2017-05-08T02:17:28.595Z,42.79
2017-05-08T02:18:37.852Z,43.07
2017-05-08T02:19:46.812Z,42.88
2017-05-08T02:20:55.770Z,42.97
2017-05-08T02:22:04.730Z,43.36
2017-05-08T02:23:13.686Z,43.93
2017-05-08T02:24:22.947Z,43.74
2017-05-08T02:25:31.909Z,43.84
2017-05-08T02:26:40.952Z,44.02
2017-05-08T02:27:50.230Z,44.41
2017-05-08T02:28:59.191Z,44.79
2017-05-08T02:30:08.452Z,44.67
2017-05-08T02:31:17.408Z,45.43
2017-05-08T02:32:26.372Z,46.13
2017-05-08T02:33:35.329Z,46.58
2017-05-08T02:34:44.311Z,46.3
2017-05-08T02:35:53.570Z,46.48
2017-05-08T02:37:02.531Z,47.56
2017-05-08T02:38:11.512Z,47.34
2017-05-08T02:39:20.465Z,46.48
2017-05-08T02:40:29.557Z,46.58
2017-05-08T02:41:38.814Z,46.58
2017-05-08T02:42:47.836Z,46.68
2017-05-08T02:43:56.796Z,46.87
2017-05-08T02:45:05.760Z,46.97
2017-05-08T02:46:14.723Z,46.58
2017-05-08T02:47:23.994Z,46.58
2017-05-08T02:48:32.949Z,46.58
2017-05-08T02:49:41.912Z,46.48
2017-05-08T02:50:50.962Z,46.87
2017-05-08T02:51:59.921Z,46.58
2017-05-08T02:53:09.127Z,46.58
2017-05-08T02:54:18.417Z,46.77
2017-05-08T02:55:27.377Z,47.25
2017-05-08T02:56:36.334Z,47.63
2017-05-08T02:57:45.290Z,47.63
2017-05-08T02:58:54.552Z,47.44
2017-05-08T03:00:03.546Z,47.92
2017-05-08T03:01:12.599Z,48.39
2017-05-08T03:02:21.558Z,48.21
2017-05-08T03:03:30.548Z,48.39
2017-05-08T03:04:39.811Z,48.97
2017-05-08T03:05:48.863Z,48.49
2017-05-08T03:06:57.822Z,47.92
2017-05-08T03:08:06.781Z,48.59
2017-05-08T03:09:16.081Z,49.07
2017-05-08T03:10:25.347Z,48.59
2017-05-08T03:11:34.295Z,49.09
2017-05-08T03:12:43.251Z,48.88
2017-05-08T03:13:52.215Z,48.49
2017-05-08T03:15:01.170Z,48.88
2017-05-08T03:16:10.429Z,48.97
2017-05-08T03:17:19.386Z,49.07
2017-05-08T03:18:28.350Z,48.71
2017-05-08T03:19:37.311Z,49.07
2017-05-08T03:20:46.277Z,48.39
2017-05-08T03:21:55.536Z,48.49
2017-05-08T03:23:04.818Z,48.21
2017-05-08T03:24:14.118Z,48.3
2017-05-08T03:25:23.091Z,47.92
2017-05-08T03:26:32.135Z,48.02
2017-05-08T03:27:41.360Z,48.02
2017-05-08T03:28:50.644Z,47.82
2017-05-08T03:29:59.604Z,47.63
2017-05-08T03:31:08.566Z,47.82
2017-05-08T03:32:17.531Z,47.54
2017-05-08T03:33:26.792Z,47.44
2017-05-08T03:34:35.762Z,47.82
2017-05-08T03:35:44.712Z,47.66
2017-05-08T03:36:53.673Z,47.25
2017-05-08T03:38:02.628Z,47.34
2017-05-08T03:39:11.900Z,47.25
2017-05-08T03:40:20.870Z,47.18
2017-05-08T03:41:29.830Z,46.42
2017-05-08T03:42:38.791Z,46.68
2017-05-08T03:43:47.770Z,46.68
2017-05-08T03:44:56.982Z,46.7
2017-05-08T03:46:05.949Z,47.34
2017-05-08T03:47:14.919Z,47.34
2017-05-08T03:48:23.874Z,47.44
2017-05-08T03:49:32.836Z,47.16
2017-05-08T03:50:42.117Z,47.82
2017-05-08T03:51:51.110Z,47.63
2017-05-08T03:53:00.067Z,47.82
2017-05-08T03:54:09.023Z,47.82
2017-05-08T03:55:17.981Z,47.82
2017-05-08T03:56:27.184Z,47.82
2017-05-08T03:57:36.151Z,47.54
2017-05-08T03:58:45.207Z,48.02
2017-05-08T03:59:54.178Z,48.02
2017-05-08T04:01:03.144Z,47.73
2017-05-08T04:02:12.350Z,48.11
2017-05-08T04:03:21.317Z,48.21
2017-05-08T04:04:30.279Z,47.63
2017-05-08T04:05:39.323Z,47.75
2017-05-08T04:06:48.283Z,47.63
2017-05-08T04:07:57.564Z,47.54
2017-05-08T04:09:06.522Z,47.44
2017-05-08T04:10:15.480Z,47.82
2017-05-08T04:11:24.849Z,47.73
2017-05-08T04:12:33.811Z,48.11
2017-05-08T04:13:43.247Z,47.44
2017-05-08T04:14:52.291Z,47.34
2017-05-08T04:16:01.287Z,47.25
2017-05-08T04:17:10.341Z,47.63
2017-05-08T04:18:19.299Z,47.44
2017-05-08T04:19:28.559Z,47.44
2017-05-08T04:20:37.522Z,47.63
2017-05-08T04:21:46.482Z,47.44
2017-05-08T04:22:55.443Z,47.44
2017-05-08T04:24:04.401Z,47.44
2017-05-08T04:25:13.605Z,47.54
2017-05-08T04:26:22.559Z,47.44
2017-05-08T04:27:31.840Z,47.54
2017-05-08T04:28:40.800Z,47.92
2017-05-08T04:29:49.874Z,47.92
2017-05-08T04:30:59.085Z,47.73
2017-05-08T04:32:08.367Z,47.92
2017-05-08T04:33:17.328Z,48.3
2017-05-08T04:34:26.289Z,48.39
2017-05-08T04:35:35.249Z,48.49
2017-05-08T04:36:44.516Z,48.02
2017-05-08T04:37:53.562Z,47.82
2017-05-08T04:39:02.526Z,47.73
2017-05-08T04:40:11.481Z,48.02
2017-05-08T04:41:20.439Z,48.02
2017-05-08T04:42:29.709Z,48.02
2017-05-08T04:43:38.684Z,48.21
2017-05-08T04:44:47.649Z,48.39
2017-05-08T04:45:56.943Z,48.59
2017-05-08T04:47:05.908Z,48.68
2017-05-08T04:48:15.164Z,48.59
2017-05-08T04:49:24.119Z,48.21
2017-05-08T04:50:33.089Z,47.92
2017-05-08T04:51:42.043Z,47.54
2017-05-08T04:52:51.001Z,47.73
2017-05-08T04:54:00.360Z,47.82
2017-05-08T04:55:09.350Z,47.92
2017-05-08T04:56:18.309Z,48.02
2017-05-08T04:57:27.268Z,48.02
2017-05-08T04:58:36.312Z,47.92
2017-05-08T04:59:45.577Z,48.02
2017-05-08T05:00:54.622Z,47.73
2017-05-08T05:02:03.578Z,48.02
2017-05-08T05:03:12.534Z,47.82
2017-05-08T05:04:21.492Z,47.73
2017-05-08T05:05:30.782Z,47.44
2017-05-08T05:06:39.749Z,47.92
2017-05-08T05:07:48.716Z,47.73
2017-05-08T05:08:57.676Z,47.44
2017-05-08T05:10:06.636Z,48.02
2017-05-08T05:11:15.978Z,47.82
2017-05-08T05:12:24.937Z,48.21
2017-05-08T05:13:33.978Z,48.49
2017-05-08T05:14:42.942Z,48.97
2017-05-08T05:15:52.231Z,50.09
2017-05-08T05:17:01.504Z,50.67
2017-05-08T05:18:10.550Z,51.62
2017-05-08T05:19:19.602Z,52.38
2017-05-08T05:20:28.581Z,52.57
2017-05-08T05:21:37.554Z,53.05
2017-05-08T05:22:46.837Z,53.81
2017-05-08T05:23:55.813Z,54.96
2017-05-08T05:25:04.793Z,54.57
2017-05-08T05:26:14.100Z,53.81
2017-05-08T05:27:23.409Z,53.72
2017-05-08T05:28:32.687Z,54
2017-05-08T05:29:41.670Z,54.19
2017-05-08T05:30:50.740Z,54.48
2017-05-08T05:31:59.724Z,55.15
2017-05-08T05:33:08.710Z,55.24
2017-05-08T05:34:17.992Z,54.86
2017-05-08T05:35:26.971Z,54.86
2017-05-08T05:36:35.953Z,55.53
2017-05-08T05:37:44.938Z,56.29
2017-05-08T05:38:54.334Z,56.48
2017-05-08T05:40:03.622Z,57.34
2017-05-08T05:41:12.612Z,57.72
2017-05-08T05:42:21.679Z,58.58
2017-05-08T05:43:30.983Z,58.2
2017-05-08T05:44:39.964Z,58.39
2017-05-08T05:45:49.243Z,59.06
2017-05-08T05:46:58.253Z,58.84
2017-05-08T05:48:07.235Z,59.16
2017-05-08T05:49:16.391Z,59.34
2017-05-08T05:50:25.698Z,59.16
2017-05-08T05:51:34.975Z,59.16
2017-05-08T05:52:44.045Z,58.48
2017-05-08T05:53:53.118Z,58.39
2017-05-08T05:55:02.108Z,58.39
2017-05-08T05:56:11.098Z,57.43
2017-05-08T05:57:20.695Z,57.06
2017-05-08T05:58:30.069Z,57.06
2017-05-08T05:59:39.028Z,57.15
2017-05-08T06:00:47.984Z,57.43
2017-05-08T06:01:56.943Z,57.06
2017-05-08T06:03:06.473Z,57.53
2017-05-08T06:04:15.431Z,56.77
2017-05-08T06:05:24.400Z,56.96
2017-05-08T06:06:33.357Z,56.48
2017-05-08T06:07:42.314Z,56.58
2017-05-08T06:08:51.572Z,56.96
2017-05-08T06:10:00.529Z,57.15
2017-05-08T06:11:09.484Z,56.77
2017-05-08T06:12:18.438Z,57.24
2017-05-08T06:13:27.392Z,56.96
2017-05-08T06:14:36.602Z,56.58
2017-05-08T06:15:45.558Z,56.67
2017-05-08T06:16:54.842Z,56.48
2017-05-08T06:18:03.883Z,56.8
2017-05-08T06:19:12.839Z,57.15
2017-05-08T06:20:22.098Z,56.48
2017-05-08T06:21:31.058Z,56.77
2017-05-08T06:22:40.012Z,57.15
2017-05-08T06:23:48.972Z,57.06
2017-05-08T06:24:57.935Z,57.72
2017-05-08T06:26:07.524Z,57.82
2017-05-08T06:27:16.475Z,57.18
2017-05-08T06:28:25.427Z,56.99
2017-05-08T06:29:34.383Z,56.89
2017-05-08T06:30:43.347Z,57.28
2017-05-08T06:31:52.610Z,57.09
2017-05-08T06:33:01.654Z,56.89
2017-05-08T06:34:10.609Z,57.09
2017-05-08T06:35:19.561Z,56.51
2017-05-08T06:36:28.513Z,56.04
2017-05-08T06:37:37.768Z,56.13
2017-05-08T06:38:46.772Z,56.32
2017-05-08T06:39:55.734Z,56.8
2017-05-08T06:41:04.690Z,57.37
2017-05-08T06:42:13.642Z,57.09
2017-05-08T06:43:22.946Z,56.99
2017-05-08T06:44:31.902Z,56.51
2017-05-08T06:45:40.945Z,56.89
2017-05-08T06:46:49.906Z,56.89
2017-05-08T06:47:58.864Z,57.56
2017-05-08T06:49:08.151Z,57.28
2017-05-08T06:50:17.109Z,57.65
2017-05-08T06:51:26.068Z,58.04
2017-05-08T06:52:35.028Z,57.94
2017-05-08T06:53:43.985Z,57.94
2017-05-08T06:54:53.330Z,58.04
2017-05-08T06:56:02.296Z,57.75
2017-05-08T06:57:11.264Z,57.65
2017-05-08T06:58:20.542Z,57.18
2017-05-08T06:59:29.501Z,57.21
2017-05-08T07:00:38.847Z,57.4
2017-05-08T07:01:47.889Z,56.92
2017-05-08T07:02:57.173Z,57.21
2017-05-08T07:04:06.127Z,56.82
2017-05-08T07:05:15.092Z,57.5
2017-05-08T07:06:24.298Z,58.64
2017-05-08T07:07:33.250Z,58.7
2017-05-08T07:08:42.213Z,58.99
2017-05-08T07:09:51.170Z,59.38
2017-05-08T07:11:00.131Z,60.52
2017-05-08T07:12:09.414Z,60.33
2017-05-08T07:13:18.379Z,61
2017-05-08T07:14:27.335Z,61.47
2017-05-08T07:15:36.288Z,62.62
2017-05-08T07:16:45.242Z,64.43
2017-05-08T07:17:54.448Z,65.01
2017-05-08T07:19:03.408Z,66.15
2017-05-08T07:20:12.415Z,67.49
2017-05-08T07:21:21.380Z,68.44
2017-05-08T07:22:30.342Z,69.11
2017-05-08T07:23:39.599Z,70.36
2017-05-08T07:24:48.553Z,70.51
2017-05-08T07:25:57.544Z,71.5
2017-05-08T07:27:06.571Z,72.13
2017-05-08T07:28:15.531Z,72.89
2017-05-08T07:29:24.744Z,73.85
2017-05-08T07:30:33.709Z,73.85
2017-05-08T07:31:42.671Z,74.71
2017-05-08T07:32:51.630Z,75.57
2017-05-08T07:34:00.589Z,75.95
2017-05-08T07:35:09.845Z,75.95
2017-05-08T07:36:18.807Z,76.62
2017-05-08T07:37:27.763Z,76.23
2017-05-08T07:38:36.717Z,76.81
2017-05-08T07:39:45.674Z,77.09
2017-05-08T07:40:54.934Z,77.38
2017-05-08T07:42:03.889Z,77.28
2017-05-08T07:43:12.942Z,77
2017-05-08T07:44:21.900Z,77.47
2017-05-08T07:45:30.864Z,77.19
2017-05-08T07:46:40.519Z,77
2017-05-08T07:47:50.317Z,77.57
2017-05-08T07:48:59.527Z,77.76
2017-05-08T07:50:08.664Z,78.33
2017-05-08T07:51:17.940Z,78.62
2017-05-08T07:52:27.206Z,78.81
2017-05-08T07:53:36.270Z,79.19
2017-05-08T07:54:45.234Z,79.38
2017-05-08T07:55:54.190Z,79.57
2017-05-08T07:57:03.206Z,79.86
2017-05-08T07:58:12.986Z,80.49
2017-05-08T07:59:22.124Z,80.53
2017-05-08T08:00:31.146Z,80.77
2017-05-08T08:01:40.108Z,81.15
2017-05-08T08:02:49.064Z,80.87
2017-05-08T08:03:58.369Z,81.63
2017-05-08T08:05:07.332Z,81.54
2017-05-08T08:06:16.287Z,81.54
2017-05-08T08:07:25.243Z,82.49
2017-05-08T08:08:34.199Z,82.3
2017-05-08T08:09:43.408Z,82.68
2017-05-08T08:10:52.451Z,83.16
2017-05-08T08:12:01.411Z,83.35
2017-05-08T08:13:10.368Z,83.25
2017-05-08T08:14:19.339Z,84.4
2017-05-08T08:15:28.597Z,84.59
2017-05-08T08:16:37.553Z,85.45
2017-05-08T08:17:46.515Z,85.64
2017-05-08T08:18:55.483Z,85.25
2017-05-08T08:20:04.445Z,85.06
2017-05-08T08:21:13.708Z,85.06
2017-05-08T08:22:22.664Z,85.25
2017-05-08T08:23:31.617Z,84.78
2017-05-08T08:24:40.582Z,84.97
2017-05-08T08:25:49.542Z,84.2
2017-05-08T08:26:58.761Z,85.35
2017-05-08T08:28:07.719Z,84.3
2017-05-08T08:29:16.707Z,84.59
2017-05-08T08:30:26.030Z,84.3
2017-05-08T08:31:36.104Z,84.59
2017-05-08T08:32:45.366Z,84.4
2017-05-08T08:33:54.361Z,85.16
2017-05-08T08:35:03.354Z,85.21
2017-05-08T08:36:12.389Z,85.06
2017-05-08T08:37:21.384Z,84.97
2017-05-08T08:38:30.731Z,84.78
2017-05-08T08:39:39.701Z,84.4
2017-05-08T08:40:50.705Z,84.4
2017-05-08T08:41:59.690Z,84.2
2017-05-08T08:43:08.767Z,85.45
2017-05-08T08:44:18.056Z,84.49
2017-05-08T08:45:27.160Z,84.3
2017-05-08T08:46:36.156Z,84.11
2017-05-08T08:47:45.144Z,83.54
2017-05-08T08:48:54.338Z,83.88
2017-05-08T08:50:03.704Z,84.74
2017-05-08T08:51:12.777Z,84.26
2017-05-08T08:52:22.009Z,83.88
2017-05-08T08:53:31.071Z,83.88
2017-05-08T08:54:40.029Z,84.45
2017-05-08T08:55:49.281Z,84.16
2017-05-08T08:56:58.365Z,83.88
2017-05-08T08:58:07.507Z,84.16
2017-05-08T08:59:16.462Z,83.78
2017-05-08T09:00:25.462Z,83.5
2017-05-08T09:01:34.720Z,83.06
2017-05-08T09:02:43.734Z,83.54
2017-05-08T09:03:52.752Z,82.4
2017-05-08T09:05:01.806Z,81.73
2017-05-08T09:06:10.763Z,81.35
2017-05-08T09:07:20.024Z,80.87
2017-05-08T09:08:28.982Z,80.68
2017-05-08T09:09:37.941Z,80.77
2017-05-08T09:10:46.902Z,80.11
2017-05-08T09:11:55.950Z,80.11
2017-05-08T09:13:05.208Z,80.2
2017-05-08T09:14:14.172Z,79.44
2017-05-08T09:15:23.126Z,78.86
2017-05-08T09:16:32.080Z,78.96
2017-05-08T09:17:41.040Z,78.86
2017-05-08T09:18:50.305Z,78.96
2017-05-08T09:19:59.259Z,78.52
2017-05-08T09:21:08.218Z,78.49
2017-05-08T09:22:17.170Z,78.14
2017-05-08T09:23:26.128Z,78.14
2017-05-08T09:24:35.387Z,78.14
2017-05-08T09:25:44.347Z,77.76
2017-05-08T09:26:53.485Z,77.57
2017-05-08T09:28:02.532Z,77.47
2017-05-08T09:29:11.577Z,77.86
2017-05-08T09:30:20.790Z,77.76
2017-05-08T09:31:29.839Z,77.09
2017-05-08T09:32:39.119Z,77.19
2017-05-08T09:33:48.070Z,76.62
2017-05-08T09:34:57.026Z,76.23
2017-05-08T09:36:06.299Z,76.04
2017-05-08T09:37:15.260Z,76.04
2017-05-08T09:38:24.219Z,76.04
2017-05-08T09:39:33.176Z,75.85
2017-05-08T09:40:42.134Z,75.47
2017-05-08T09:41:51.394Z,75.47
2017-05-08T09:43:00.357Z,75.28
2017-05-08T09:44:09.326Z,74.8
2017-05-08T09:45:18.289Z,74.42
2017-05-08T09:46:27.263Z,74.46
2017-05-08T09:47:36.529Z,73.75
2017-05-08T09:48:45.491Z,73.79
2017-05-08T09:49:54.449Z,74.04
2017-05-08T09:51:03.405Z,74.13
2017-05-08T09:52:12.361Z,73.47
2017-05-08T09:53:21.574Z,73.47
2017-05-08T09:54:30.528Z,73.47
2017-05-08T09:55:39.490Z,73.56
2017-05-08T09:56:48.447Z,73.56
2017-05-08T09:57:57.407Z,73.37
2017-05-08T09:59:06.663Z,73.56
2017-05-08T10:00:15.967Z,73.56
2017-05-08T10:01:24.923Z,73.28
2017-05-08T10:02:33.877Z,72.74
2017-05-08T10:03:42.835Z,72.83
2017-05-08T10:04:52.182Z,72.45
2017-05-08T10:06:01.143Z,72.51
2017-05-08T10:07:10.228Z,72.74
2017-05-08T10:08:19.184Z,72.64
2017-05-08T10:09:28.475Z,72.74
2017-05-08T10:10:37.731Z,72.74
2017-05-08T10:11:46.690Z,73.03
2017-05-08T10:12:55.740Z,72.93
2017-05-08T10:14:04.736Z,73.03
2017-05-08T10:15:14.035Z,72.93
2017-05-08T10:16:23.332Z,72.55
2017-05-08T10:17:32.291Z,72.26
2017-05-08T10:18:41.251Z,72.36
2017-05-08T10:19:50.220Z,72.07
2017-05-08T10:20:59.178Z,71.78
2017-05-08T10:22:08.389Z,71.5
2017-05-08T10:23:17.354Z,71.98
2017-05-08T10:24:26.312Z,71.69
2017-05-08T10:25:35.270Z,71.69
2017-05-08T10:26:44.225Z,71.69
2017-05-08T10:27:53.482Z,71.5
2017-05-08T10:29:02.449Z,72.26
2017-05-08T10:30:11.404Z,72.07
2017-05-08T10:31:20.841Z,71.69
2017-05-08T10:32:29.969Z,71.69
2017-05-08T10:33:39.232Z,71.41
2017-05-08T10:34:48.186Z,71.41
2017-05-08T10:35:57.139Z,71.69
2017-05-08T10:37:06.424Z,71.21
2017-05-08T10:38:15.380Z,71.02
2017-05-08T10:39:24.638Z,71.02
2017-05-08T10:40:33.595Z,71.21
2017-05-08T10:41:42.558Z,71.5
2017-05-08T10:42:51.513Z,70.92
2017-05-08T10:44:00.498Z,71.21
2017-05-08T10:45:09.755Z,71.78
2017-05-08T10:46:18.713Z,71.02
2017-05-08T10:47:27.667Z,71.31
2017-05-08T10:48:36.686Z,71.41
2017-05-08T10:49:45.763Z,71.31
2017-05-08T10:50:55.016Z,71.02
2017-05-08T10:52:03.972Z,71.31
2017-05-08T10:53:12.925Z,71.31
2017-05-08T10:54:21.887Z,71.31
2017-05-08T10:55:30.843Z,71.41
2017-05-08T10:56:40.050Z,71.59
2017-05-08T10:57:49.012Z,71.12
2017-05-08T10:58:57.969Z,71.21
2017-05-08T11:00:06.928Z,71.59
2017-05-08T11:01:15.884Z,71.59
2017-05-08T11:02:25.211Z,71.78
2017-05-08T11:03:34.547Z,71.31
2017-05-08T11:04:43.510Z,71.12
2017-05-08T11:05:52.472Z,71.02
2017-05-08T11:07:01.436Z,73.41
2017-05-08T11:08:10.696Z,75.13
2017-05-08T11:09:19.657Z,76.37
2017-05-08T11:10:28.611Z,77.61
2017-05-08T11:11:37.658Z,77.13
2017-05-08T11:12:46.617Z,76.9
2017-05-08T11:13:55.873Z,77
2017-05-08T11:15:04.838Z,77.67
2017-05-08T11:16:13.803Z,78.33
2017-05-08T11:17:23.086Z,79
2017-05-08T11:18:32.455Z,78.81
2017-05-08T11:19:41.714Z,79.63
2017-05-08T11:20:50.670Z,78.72
2017-05-08T11:21:59.627Z,79.48
2017-05-08T11:23:08.584Z,79
2017-05-08T11:24:17.548Z,79.77
2017-05-08T11:25:26.806Z,79.44
2017-05-08T11:26:35.768Z,79.67
2017-05-08T11:27:44.726Z,79.15
2017-05-08T11:28:53.682Z,78.72
2017-05-08T11:30:02.646Z,78.72
2017-05-08T11:31:11.908Z,78.3
2017-05-08T11:32:20.869Z,78.67
2017-05-08T11:33:29.824Z,78.96
2017-05-08T11:34:38.783Z,79.25
2017-05-08T11:35:47.743Z,79.53
2017-05-08T11:36:56.997Z,79.63
2017-05-08T11:38:05.985Z,79.53
2017-05-08T11:39:15.027Z,79.06
2017-05-08T11:40:23.979Z,79.44
2017-05-08T11:41:33.262Z,80.01
2017-05-08T11:42:42.524Z,80.05
2017-05-08T11:43:51.480Z,80.33
2017-05-08T11:45:00.439Z,80.33
2017-05-08T11:46:09.399Z,80.15
2017-05-08T11:47:18.358Z,79.77
2017-05-08T11:48:27.621Z,80.24
2017-05-08T11:49:36.575Z,80.05
2017-05-08T11:50:45.620Z,79.57
2017-05-08T11:51:54.582Z,80.15
2017-05-08T11:53:03.539Z,80.05
2017-05-08T11:54:12.752Z,79.86
2017-05-08T11:55:21.717Z,80.05
2017-05-08T11:56:30.679Z,80.05
2017-05-08T11:57:39.633Z,79.86
2017-05-08T11:58:48.590Z,80.24
2017-05-08T11:59:57.852Z,80.05
2017-05-08T12:01:06.811Z,80.05
2017-05-08T12:02:15.768Z,79.77
2017-05-08T12:03:24.820Z,79.67
2017-05-08T12:04:34.103Z,79.77
2017-05-08T12:05:43.364Z,79.86
2017-05-08T12:06:52.322Z,80.43
2017-05-08T12:08:01.275Z,80.33
2017-05-08T12:09:10.258Z,80.53
2017-05-08T12:10:19.215Z,81.01
2017-05-08T12:11:28.475Z,81.01
2017-05-08T12:12:37.429Z,81.29
2017-05-08T12:13:46.388Z,81.2
2017-05-08T12:14:55.349Z,81.77
2017-05-08T12:16:04.309Z,81.58
2017-05-08T12:17:13.567Z,82.43
2017-05-08T12:18:22.532Z,82.34
2017-05-08T12:19:31.577Z,82.43
2017-05-08T12:20:40.535Z,82.82
2017-05-08T12:21:49.489Z,83.29
2017-05-08T12:22:58.698Z,83.48
2017-05-08T12:24:07.648Z,83.48
2017-05-08T12:25:16.610Z,83.58
2017-05-08T12:26:25.566Z,83.39
2017-05-08T12:27:34.520Z,83.96
2017-05-08T12:28:43.724Z,84.06
2017-05-08T12:29:52.766Z,84.06
2017-05-08T12:31:02.061Z,83.77
2017-05-08T12:32:11.022Z,83.96
2017-05-08T12:33:19.983Z,84.53
2017-05-08T12:34:29.278Z,84.53
2017-05-08T12:35:38.238Z,84.53
2017-05-08T12:36:47.198Z,85.01
2017-05-08T12:37:56.160Z,85.21
2017-05-08T12:39:05.113Z,85.68
2017-05-08T12:40:14.372Z,86.16
2017-05-08T12:41:23.331Z,87.15
2017-05-08T12:42:32.285Z,87.78
2017-05-08T12:43:41.583Z,87.49
2017-05-08T12:44:50.537Z,87.97
2017-05-08T12:45:59.741Z,87.59
2017-05-08T12:47:08.782Z,87.68
2017-05-08T12:48:17.738Z,87.87
2017-05-08T12:49:26.700Z,88.26
2017-05-08T12:50:35.977Z,88.35
2017-05-08T12:51:45.239Z,89.12
2017-05-08T12:52:54.194Z,89.69
2017-05-08T12:54:03.246Z,90.26
2017-05-08T12:55:12.206Z,90.55
2017-05-08T12:56:21.491Z,90.64
2017-05-08T12:57:30.705Z,91.02
2017-05-08T12:58:39.668Z,91.12
2017-05-08T12:59:48.624Z,91.21
2017-05-08T13:00:57.671Z,91.88
2017-05-08T13:02:06.629Z,92.93
2017-05-08T13:03:15.935Z,93.02
2017-05-08T13:04:24.892Z,93.93
2017-05-08T13:05:33.936Z,93.36
2017-05-08T13:06:42.893Z,94.46
2017-05-08T13:07:51.866Z,94.37
2017-05-08T13:09:01.074Z,95.27
2017-05-08T13:10:10.026Z,96.03
2017-05-08T13:11:19.071Z,96.03
2017-05-08T13:12:28.027Z,96.36
2017-05-08T13:13:37.084Z,96.94
2017-05-08T13:14:46.674Z,96.94
2017-05-08T13:15:55.631Z,97.7
2017-05-08T13:17:04.589Z,97.79
2017-05-08T13:18:13.541Z,97.7
2017-05-08T13:19:22.492Z,97.31
2017-05-08T13:20:31.752Z,97.89
2017-05-08T13:21:40.791Z,97.99
2017-05-08T13:22:49.745Z,98.6
2017-05-08T13:23:58.705Z,99.22
2017-05-08T13:25:07.663Z,98.6
2017-05-08T13:26:16.967Z,98.6
2017-05-08T13:27:25.919Z,98.5
2017-05-08T13:28:34.876Z,98.98
2017-05-08T13:29:44.248Z,99.27
2017-05-08T13:30:53.205Z,99.65
2017-05-08T13:32:02.460Z,99.27
2017-05-08T13:33:11.416Z,99.99
2017-05-08T13:34:20.700Z,99.99
2017-05-08T13:35:29.654Z,99.99
2017-05-08T13:36:38.603Z,99.99
2017-05-08T13:37:47.862Z,99.99
2017-05-08T13:38:56.821Z,99.99
2017-05-08T13:40:05.770Z,99.99
2017-05-08T13:41:14.720Z,99.99
2017-05-08T13:42:23.674Z,99.99
2017-05-08T13:43:33.012Z,99.99
2017-05-08T13:44:41.999Z,99.99
2017-05-08T13:45:50.951Z,99.99
2017-05-08T13:46:59.907Z,99.99
2017-05-08T13:48:08.865Z,99.99
2017-05-08T13:49:18.070Z,99.99
2017-05-08T13:50:27.028Z,99.99
2017-05-08T13:51:36.073Z,99.99
2017-05-08T13:52:45.119Z,99.99
2017-05-08T13:53:54.070Z,99.99
2017-05-08T13:55:03.331Z,99.99
2017-05-08T13:56:12.283Z,99.99
2017-05-08T13:57:21.235Z,99.99
2017-05-08T13:58:30.213Z,99.99
2017-05-08T13:59:39.253Z,99.99
2017-05-08T14:00:48.510Z,99.99
2017-05-08T14:01:57.555Z,99.99
2017-05-08T14:03:06.597Z,99.99
2017-05-08T14:04:15.550Z,99.99
2017-05-08T14:05:24.509Z,99.99
2017-05-08T14:06:33.764Z,99.99
2017-05-08T14:07:42.719Z,99.99
2017-05-08T14:08:51.673Z,99.99
2017-05-08T14:10:00.627Z,99.99
2017-05-08T14:11:09.585Z,99.99
2017-05-08T14:12:18.796Z,99.99
2017-05-08T14:13:27.836Z,99.99
2017-05-08T14:14:36.886Z,99.99
2017-05-08T14:15:46.176Z,99.99
2017-05-08T14:16:55.453Z,99.99
2017-05-08T14:18:04.663Z,99.99
2017-05-08T14:19:13.614Z,99.99
2017-05-08T14:20:22.655Z,99.99
2017-05-08T14:21:31.611Z,99.99
2017-05-08T14:22:40.566Z,99.99
2017-05-08T14:23:49.824Z,99.99
2017-05-08T14:24:58.872Z,99.99
2017-05-08T14:26:07.838Z,99.99
2017-05-08T14:27:16.793Z,99.99
2017-05-08T14:28:25.747Z,99.99
2017-05-08T14:29:35.003Z,99.99
2017-05-08T14:30:43.954Z,99.99
2017-05-08T14:31:52.904Z,99.99
2017-05-08T14:33:01.864Z,99.99
2017-05-08T14:34:10.821Z,99.99
2017-05-08T14:35:20.025Z,99.99
2017-05-08T14:36:28.979Z,99.99
2017-05-08T14:37:37.931Z,99.99
2017-05-08T14:38:46.882Z,99.99
2017-05-08T14:39:55.839Z,99.99
2017-05-08T14:41:05.097Z,99.99
2017-05-08T14:42:14.139Z,99.99
2017-05-08T14:43:23.097Z,99.99
2017-05-08T14:44:32.144Z,99.99
2017-05-08T14:45:41.096Z,99.99
2017-05-08T14:46:50.301Z,99.99
2017-05-08T14:47:59.266Z,99.99
2017-05-08T14:49:08.303Z,99.99
2017-05-08T14:50:17.256Z,99.99
2017-05-08T14:51:26.295Z,99.99